• Join FlightAware (Why Join?)
  • Login
  • US Flag 
03:58PM EDT


 

Airport Tracker/Info


-or-


 

Live Flight TrackerFlight Track Log ✈ KAP444 ✈ 19-Aug-2013 ✈ KHPN - KACK

Flight Track Log - Related Links

Times and Time Zones

All times are in EDT time to prevent confusion due to time zone crossing. See the KAP444 flight status page for this flight to view local times or setup timezone preferences in your user account.

Time Position Orientation Groundspeed Altitude Reporting Facility
EDT Latitude Longitude Course Direction KTS MPH feet Rate Location/Type
01:31PM 41.1000 -73.6500 90° East 138 159 2,900  Level New York TRACON
01:32PM 41.1167 -73.6000 66° East 134 154 4,000 960 Climbing New York TRACON
01:33PM 41.1167 -73.5500 90° East 133 153 4,900 900 Climbing New York TRACON
01:34PM 41.1167 -73.5000 90° East 136 157 5,900 900 Climbing New York TRACON
01:35PM 41.1167 -73.4500 90° East 143 165 6,800 780 Climbing New York TRACON
01:36PM 41.1333 -73.3833 72° East 153 176 7,500 360 Climbing New York TRACON
01:37PM 41.1333 -73.3167 90° East 187 215 7,600  Climbing New York TRACON
01:38PM 41.1333 -73.2500 90° East 199 229 7,600  Level New York TRACON
01:39PM 41.1333 -73.1833 90° East 199 229 7,600 -60 Level New York TRACON
01:40PM 41.1333 -73.1000 90° East 199 229 7,500  Descending New York TRACON
01:41PM 41.1500 -73.0333 72° East 199 229 7,600  Climbing New York TRACON
01:42PM 41.1500 -72.9500 90° East 199 229 7,500  Descending New York TRACON
01:43PM 41.1500 -72.8833 90° East 200 230 7,600  Climbing New York TRACON
01:44PM 41.1500 -72.8167 90° East 195 224 7,500 -60 Descending New York TRACON
01:45PM 41.1500 -72.7333 90° East 197 227 7,500  Level New York TRACON
01:46PM 41.1500 -72.6667 90° East 197 227 7,600  Climbing New York TRACON
01:47PM 41.1603 -72.5972 79° East 228 262 7,500  Descending Boston Center
01:48PM 41.1686 -72.5036 83° East 194 223 7,600  Climbing Boston Center
01:49PM 41.1728 -72.4292 86° East 196 226 7,600  Level Boston Center
01:50PM 41.1792 -72.3547 83° East 196 226 7,600 -60 Level Boston Center
01:51PM 41.1789 -72.2747 90° East 193 222 7,500  Descending Boston Center
01:52PM 41.1831 -72.2028 86° East 193 222 7,600  Climbing Boston Center
01:53PM 41.1850 -72.1283 88° East 190 219 7,600 -60 Level Boston Center
01:54PM 41.1869 -72.0706 87° East 192 221 7,500  Descending Boston Center
01:55PM 41.1886 -71.9933 88° East 197 227 7,600  Climbing Boston Center
01:56PM 41.1883 -71.9217 90° East 191 220 7,600  Level Boston Center
01:57PM 41.1942 -71.8497 84° East 193 222 7,600  Level Boston Center
01:58PM 41.1958 -71.7781 88° East 180 207 7,600  Level Boston Center
01:59PM 41.1997 -71.7200 85° East 178 205 7,600  Level Boston Center
02:00PM 41.2036 -71.6511 86° East 181 208 7,600  Level Boston Center
02:01PM 41.2050 -71.5847 88° East 182 209 7,600  Level Boston Center
02:02PM 41.2128 -71.5158 81° East 180 207 7,600  Level Boston Center
02:03PM 41.2144 -71.4467 88° East 182 209 7,600  Level Boston Center
02:05PM 41.2121 -71.3723 92° East  Level FlightAware Approximate
02:12PM 41.2048 -70.9322 86° East  Level FlightAware Approximate
02:13PM 41.2083 -70.8695 86° East  Level FlightAware Approximate
02:14PM 41.2117 -70.8068 86° East  Level FlightAware Approximate
02:15PM 41.2152 -70.7441 86° East  Level FlightAware Approximate
02:16PM 41.2169 -70.6813 82° East  Level FlightAware Approximate
02:17PM 41.2231 -70.6189 82° East  Level FlightAware Approximate
02:18PM 41.2294 -70.5566 82° East  Level FlightAware Approximate
02:19PM 41.2333 -70.4940 90° East  Level FlightAware Approximate
02:20PM 41.2333 -70.4311 90° East  Level FlightAware Approximate
02:21PM 41.2333 -70.3682 90° East  Level FlightAware Approximate
02:22PM 41.2334 -70.3053 90° East  Level FlightAware Approximate
02:23PM 41.2334 -70.2423 90° East  Level FlightAware Approximate
02:24PM 41.2333 -70.1794 90° East  Level FlightAware Approximate
02:25PM 41.2388 -70.1173 77° East  Level FlightAware Approximate
02:26PM 41.2490 -70.0559 77° East  Level FlightAware Approximate
02:27PM 41.2500 -70.0500 77° East  Level FlightAware Approximate
02:28PM 41.2531 -70.0603 77° East  Level Estimated
02:29PM 41.2531 -70.0603 77° East  Level Estimated
02:30PM 41.2531 -70.0603 77° East  Level Estimated
02:31PM 41.2531 -70.0603 77° East  Level Estimated
02:32PM 41.2531 -70.0603 77° East  Level Estimated
02:33PM 41.2531 -70.0603 77° East  Level Estimated